• Join FlightAware (Why Join?)
  • Login
  • US Flag 
09:39AM EST


 

Airport Tracker/Info


-or-


 

Live Flight TrackerFlight Track Log ✈ RPA3220 ✈ 26-Jul-2013 ✈ KDCA - KBDL

Flight Track Log - Related Links

Times and Time Zones

All times are in EDT time to prevent confusion due to time zone crossing. See the RPA3220 flight status page for this flight to view local times or setup timezone preferences in your user account.

Time Position Orientation Groundspeed Altitude Reporting Facility
EDT Latitude Longitude Course Direction KTS MPH feet Rate Location/Type
03:09PM 38.8333 -77.0333 57° Northeast 151 174 1,200  Level Potomac TRACON
03:10PM 38.7833 -77.0167 165° South 199 229 2,800 1,860 Climbing Potomac TRACON
03:10PM 38.7833 -76.9667 90° East 240 276 4,800 2,280 Climbing Potomac TRACON
03:11PM 39.0037 -76.5926 57° Northeast  Level FlightAware Approximate
03:12PM 39.0471 -76.4822 63° Northeast  Level FlightAware Approximate
03:12PM 38.8333 -76.8833 52° Northeast 269 310 7,400  Level Potomac TRACON
03:12PM 38.8528 -76.8206 68° East 290 334 9,000 2,460 Climbing Washington Center
03:13PM 39.0926 -76.3729 61° Northeast  Level FlightAware Approximate
03:13PM 38.8975 -76.7306 57° Northeast 297 342 11,600  Level Washington Center
03:14PM 39.1208 -76.2584 57° Northeast  Level FlightAware Approximate
03:14PM 38.9464 -76.6353 57° Northeast 302 348 14,100  Level Washington Center
03:15PM 38.9950 -76.5369 58° Northeast 313 360 16,500 2,160 Climbing Washington Center
03:16PM 39.0481 -76.4336 57° Northeast 320 368 18,400 1,620 Climbing Washington Center
03:17PM 39.1050 -76.3192 57° Northeast 350 403 19,800 1,680 Climbing Washington Center
03:18PM 39.1536 -76.1964 63° Northeast 371 427 21,800 1,560 Climbing Washington Center
03:19PM 39.1750 -76.0547 79° East 387 445 23,000 900 Climbing Washington Center
03:20PM 39.1922 -75.9022 82° East 400 460 23,600 1,260 Climbing Washington Center
03:21PM 39.2592 -75.7925 52° Northeast 392 451 25,600 1,620 Climbing Washington Center
03:22PM 39.3406 -75.6881 45° Northeast 386 444 26,900 660 Climbing Washington Center
03:23PM 39.4219 -75.5861 44° Northeast 398 458 27,000  Climbing Washington Center
03:25PM 39.5728 -75.3925 45° Northeast 393 452 27,000  Level New York Center
03:26PM 39.6453 -75.2947 46° Northeast 380 437 27,000  Level New York Center
03:27PM 39.7158 -75.1942 48° Northeast 374 430 27,000  Level New York Center
03:28PM 39.7886 -75.0881 48° Northeast 379 436 27,000  Level New York Center
03:29PM 39.8567 -74.9922 47° Northeast 372 428 27,000  Level New York Center
03:30PM 39.9269 -74.8908 48° Northeast 372 428 27,000  Level New York Center
03:31PM 39.9883 -74.8022 48° Northeast 372 428 27,000  Level New York Center
03:32PM 40.0611 -74.6817 52° Northeast 378 435 27,000 -360 Level New York Center
03:33PM 40.1144 -74.5817 55° Northeast 378 435 26,400 -960 Descending New York Center
03:34PM 40.1831 -74.4578 54° Northeast 373 429 25,100 -1,020 Descending New York Center
03:35PM 40.2342 -74.3597 56° Northeast 373 429 24,400 -600 Descending New York Center
03:36PM 40.2914 -74.2539 55° Northeast 367 422 23,900 -600 Descending New York Center
03:37PM 40.3489 -74.1453 55° Northeast 367 422 23,300 -540 Descending New York Center
03:40PM 40.4756 -73.9078 55° Northeast 366 421 22,100 -600 Descending Boston Center
03:41PM 40.5439 -73.7836 54° Northeast 353 406 21,400 -600 Descending Boston Center
03:42PM 40.5886 -73.7000 55° Northeast 348 400 21,000 -600 Descending Boston Center
03:43PM 40.6567 -73.5589 58° Northeast 348 400 20,300 -600 Descending Boston Center
03:44PM 40.7100 -73.4531 56° Northeast 348 400 19,800 -540 Descending Boston Center
03:45PM 40.7650 -73.3472 56° Northeast 348 400 19,300 -420 Descending Boston Center
03:46PM 40.8261 -73.2656 45° Northeast 348 400 18,900 -1,140 Descending Boston Center
03:47PM 40.9122 -73.1706 40° Northeast 334 384 16,900 -1,440 Descending Boston Center
03:48PM 40.9794 -73.0889 43° Northeast 334 384 16,000 -840 Descending Boston Center
03:49PM 41.0486 -73.0069 42° Northeast 328 377 15,300 -1,200 Descending Boston Center
03:50PM 41.1136 -72.9306 42° Northeast 323 372 13,700 -1,620 Descending Boston Center
03:51PM 41.1783 -72.8539 42° Northeast 311 358 12,100 -1,440 Descending Boston Center
03:52PM 41.2453 -72.7742 42° Northeast 297 342 11,000 -600 Descending Boston Center
03:53PM 41.3100 -72.7219 31° Northeast 289 333 11,000 -480 Level Boston Center
03:54PM 41.3850 -72.7556 341° North 292 336 10,100 -1,140 Descending Boston Center
03:55PM 41.4494 -72.8083 328° Northwest 269 310 8,800 -1,020 Descending Boston Center
03:56PM 41.5181 -72.8669 327° Northwest 278 320 8,100 -600 Descending Boston Center
03:57PM 41.5761 -72.9147 328° Northwest 224 258 7,600 -960 Descending Boston Center
03:58PM 41.6364 -72.9372 344° North 218 251 6,200 -1,260 Descending Boston Center
03:59PM 41.7031 -72.9572 347° North 225 259 4,900 -1,020 Descending Boston Center
04:00PM 41.7511 -72.9269 25° Northeast 209 241 4,100 -900 Descending Boston Center
04:01PM 41.7994 -72.8744 39° Northeast 236 272 3,300 -840 Descending Boston Center